Time;durP1;ratioP1;P1;durP2;ratioP2;P2;SDS_P1;SDS_P2;PMS_P1;PMS_P2;Temp;Humidity;BMP_temperature;BMP_pressure;BME280_temperature;BME280_humidity;BME280_pressure;Samples;Min_cycle;Max_cycle;Signal;HPM_P1;HPM_P2
2021/01/08 00:01:55;;;;;;;7.10;6.00;;;;;;;12.25;47.17;100172.47;4913529;28;98514;-62
2021/01/08 00:04:21;;;;;;;7.38;6.35;;;;;;;12.23;47.14;100168.47;4920852;28;128132;-62
2021/01/08 00:06:50;;;;;;;7.45;6.25;;;;;;;12.24;47.37;100170.06;4914960;28;97772;-62
2021/01/08 00:09:16;;;;;;;7.30;6.25;;;;;;;12.24;47.20;100168.19;4900494;28;106510;-62
2021/01/08 00:11:42;;;;;;;7.57;5.88;;;;;;;12.24;47.17;100170.06;4906986;28;128098;-62
2021/01/08 00:14:08;;;;;;;7.00;6.05;;;;;;;12.27;47.18;100170.31;4921882;28;98487;-62
2021/01/08 00:16:35;;;;;;;6.43;5.63;;;;;;;12.25;47.38;100174.38;4921672;28;127719;-62
2021/01/08 00:19:02;;;;;;;6.93;5.95;;;;;;;12.25;47.43;100160.88;4907119;28;101916;-62
2021/01/08 00:21:38;;;;;;;6.95;5.70;;;;;;;12.23;47.50;100169.28;4903009;28;103891;-62
2021/01/08 00:24:08;;;;;;;7.88;6.03;;;;;;;12.26;47.58;100162.47;4901716;28;98189;-62
2021/01/08 00:26:34;;;;;;;6.90;6.13;;;;;;;12.26;47.73;100166.00;4902593;28;115154;-61
2021/01/08 00:29:00;;;;;;;7.45;6.20;;;;;;;12.26;47.26;100157.91;4902471;28;116686;-62
2021/01/08 00:31:33;;;;;;;7.22;6.25;;;;;;;12.26;47.14;100155.19;4902297;28;100443;-62
2021/01/08 00:33:59;;;;;;;7.30;5.95;;;;;;;12.26;47.50;100151.66;4901675;28;112881;-62
2021/01/08 00:36:25;;;;;;;6.63;5.60;;;;;;;12.26;47.63;100154.38;4919872;28;128334;-62
2021/01/08 00:38:51;;;;;;;6.75;6.00;;;;;;;12.28;47.49;100158.41;4903512;28;116139;-62
2021/01/08 00:41:26;;;;;;;7.75;5.95;;;;;;;12.27;47.19;100148.69;4910175;28;128601;-62
2021/01/08 00:43:52;;;;;;;6.90;6.10;;;;;;;12.25;47.28;100155.47;4885216;28;98307;-62
2021/01/08 00:46:18;;;;;;;8.02;6.28;;;;;;;12.26;47.30;100149.78;4903822;28;128287;-62
2021/01/08 00:48:44;;;;;;;7.45;6.20;;;;;;;12.25;47.58;100150.06;4921129;28;116957;-61
2021/01/08 00:51:10;;;;;;;6.93;5.93;;;;;;;12.23;47.30;100153.06;4920061;28;127578;-62
2021/01/08 00:53:36;;;;;;;7.03;5.85;;;;;;;12.23;47.37;100150.34;4920009;28;103564;-62
2021/01/08 00:56:02;;;;;;;7.72;5.95;;;;;;;12.22;47.36;100150.63;4902305;28;102563;-62
2021/01/08 00:58:28;;;;;;;6.80;6.07;;;;;;;12.22;47.50;100150.63;4901990;28;117397;-62
2021/01/08 01:00:54;;;;;;;7.97;6.05;;;;;;;12.23;47.62;100152.25;4901344;28;108149;-62
2021/01/08 01:03:20;;;;;;;7.57;5.95;;;;;;;12.22;47.37;100148.75;4895454;28;115030;-62
2021/01/08 01:05:46;;;;;;;7.45;6.18;;;;;;;12.22;47.53;100147.94;4919965;28;128254;-62
2021/01/08 01:08:12;;;;;;;6.50;5.80;;;;;;;12.23;47.28;100157.66;4921096;28;106046;-62
2021/01/08 01:10:38;;;;;;;7.90;6.15;;;;;;;12.21;47.55;100157.94;4919264;28;127836;-62
2021/01/08 01:13:04;;;;;;;7.38;6.20;;;;;;;12.22;47.68;100154.16;4920721;28;128922;-62
2021/01/08 01:15:30;;;;;;;7.35;5.95;;;;;;;12.22;47.38;100159.56;4920752;28;104549;-62
2021/01/08 01:17:56;;;;;;;7.28;5.80;;;;;;;12.22;47.60;100164.97;4920000;28;118855;-61
2021/01/08 01:20:23;;;;;;;7.07;5.70;;;;;;;12.22;47.55;100164.13;4919635;28;128248;-62
2021/01/08 01:22:49;;;;;;;7.45;6.03;;;;;;;12.18;47.84;100161.22;4898818;28;98615;-62
2021/01/08 01:25:15;;;;;;;7.63;5.97;;;;;;;12.20;47.32;100161.72;4897250;28;97936;-62
2021/01/08 01:27:41;;;;;;;6.97;6.00;;;;;;;12.21;47.55;100165.25;4900311;28;97919;-62
2021/01/08 01:30:08;;;;;;;7.32;5.72;;;;;;;12.19;47.61;100160.13;4902676;28;98416;-62
2021/01/08 01:32:34;;;;;;;7.28;5.68;;;;;;;12.19;47.72;100160.13;4920301;28;98073;-62
2021/01/08 01:35:00;;;;;;;6.88;5.78;;;;;;;12.20;47.63;100160.94;4920575;28;126169;-62
2021/01/08 01:37:26;;;;;;;6.95;5.47;;;;;;;12.19;47.87;100164.72;4920262;28;116972;-62
2021/01/08 01:39:52;;;;;;;7.07;5.95;;;;;;;12.18;47.38;100155.81;4918825;28;130455;-62
2021/01/08 01:42:18;;;;;;;6.68;5.72;;;;;;;12.18;47.67;100150.41;4896797;28;116091;-62
2021/01/08 01:44:44;;;;;;;6.40;5.57;;;;;;;12.19;47.54;100160.13;4890222;28;126713;-62
2021/01/08 01:47:10;;;;;;;7.35;5.60;;;;;;;12.18;47.96;100155.81;4896591;28;117908;-62
2021/01/08 01:49:36;;;;;;;6.50;5.55;;;;;;;12.19;47.91;100151.22;4857481;28;127446;-62
2021/01/08 01:52:03;;;;;;;6.68;5.32;;;;;;;12.21;47.85;100146.31;4880581;28;128285;-62
2021/01/08 01:54:29;;;;;;;5.93;5.15;;;;;;;12.20;47.49;100152.81;4893359;28;116509;-62
2021/01/08 01:56:55;;;;;;;6.80;5.80;;;;;;;12.25;47.64;100148.16;4899604;28;117985;-61
2021/01/08 01:59:21;;;;;;;6.40;5.20;;;;;;;12.28;47.41;100147.59;4909577;28;116389;-62
2021/01/08 02:01:47;;;;;;;6.40;5.65;;;;;;;12.32;47.42;100149.72;4885449;28;126993;-62
2021/01/08 02:04:13;;;;;;;6.07;5.10;;;;;;;12.36;47.27;100154.28;4872789;28;128381;-62
2021/01/08 02:06:39;;;;;;;5.45;4.80;;;;;;;12.36;47.15;100156.19;4882766;28;117701;-61
2021/01/08 02:09:12;;;;;;;7.00;5.80;;;;;;;12.37;47.38;100152.38;4898699;28;127900;-61
2021/01/08 02:11:38;;;;;;;6.95;5.68;;;;;;;12.39;47.47;100153.72;4901603;28;98811;-62
2021/01/08 02:14:17;;;;;;;6.40;5.25;;;;;;;12.38;47.27;100149.41;4875459;28;118361;-61
2021/01/08 02:16:44;;;;;;;7.88;5.35;;;;;;;12.41;47.48;100148.00;4884326;28;97923;-61
2021/01/08 02:19:33;;;;;;;7.07;5.10;;;;;;;12.37;47.28;100147.78;4910242;28;98490;-61
2021/01/08 02:22:11;;;;;;;6.47;5.13;;;;;;;12.39;47.23;100147.50;4887645;28;98357;-62
2021/01/08 02:24:58;;;;;;;5.68;4.95;;;;;;;12.41;47.11;100148.00;4903074;28;98032;-62
2021/01/08 02:27:25;;;;;;;6.20;5.05;;;;;;;12.39;46.94;100142.09;4918898;28;97955;-61
2021/01/08 02:29:51;;;;;;;5.97;5.38;;;;;;;12.41;47.17;100148.81;4901689;28;127892;-61
2021/01/08 02:32:17;;;;;;;5.57;4.72;;;;;;;12.39;47.32;100145.59;4901268;28;120677;-61
2021/01/08 02:34:43;;;;;;;5.68;4.70;;;;;;;12.41;47.09;100142.59;4916428;28;127547;-61
2021/01/08 02:37:09;;;;;;;6.10;4.88;;;;;;;12.43;47.35;100143.13;4901098;28;116390;-61
2021/01/08 02:39:36;;;;;;;6.68;5.10;;;;;;;12.44;47.16;100142.03;4902495;28;128396;-62
2021/01/08 02:42:02;;;;;;;5.70;4.63;;;;;;;12.41;47.17;100140.69;4919609;28;128089;-62
2021/01/08 02:44:28;;;;;;;5.93;5.30;;;;;;;12.43;47.61;100135.03;4901607;28;117910;-61
2021/01/08 02:46:54;;;;;;;6.00;5.05;;;;;;;12.41;47.11;100143.41;4906452;28;117254;-62
2021/01/08 02:49:20;;;;;;;6.13;5.15;;;;;;;12.42;47.19;100141.53;4885028;28;128877;-62
2021/01/08 02:51:46;;;;;;;5.78;5.18;;;;;;;12.42;47.57;100144.22;4885319;28;128325;-62
2021/01/08 02:54:12;;;;;;;5.90;5.00;;;;;;;12.40;47.35;100139.09;4886480;28;110525;-62
2021/01/08 02:56:47;;;;;;;6.45;4.80;;;;;;;12.41;47.29;100137.19;4904219;28;118003;-62
2021/01/08 02:59:13;;;;;;;6.05;5.00;;;;;;;12.43;47.23;100137.72;4920568;28;117744;-61
2021/01/08 03:01:39;;;;;;;5.65;4.90;;;;;;;12.41;47.29;100137.19;4886129;28;127931;-62
2021/01/08 03:04:06;;;;;;;5.68;4.85;;;;;;;12.42;47.71;100136.91;4906223;28;98078;-62
2021/01/08 03:06:32;;;;;;;5.25;4.60;;;;;;;12.41;47.54;100131.78;4906007;28;97958;-62
2021/01/08 03:08:59;;;;;;;5.90;4.85;;;;;;;12.42;47.39;100141.53;4905619;28;98438;-62
2021/01/08 03:11:25;;;;;;;5.88;4.90;;;;;;;12.39;47.51;100134.78;4924107;28;98701;-61
2021/01/08 03:13:53;;;;;;;5.55;4.68;;;;;;;12.38;47.28;100138.59;4923077;28;98424;-61
2021/01/08 03:16:20;;;;;;;5.70;4.18;;;;;;;12.40;47.34;100133.69;4923931;28;97928;-62
2021/01/08 03:18:46;;;;;;;5.60;5.00;;;;;;;12.38;47.46;100135.06;4921319;28;98709;-62
2021/01/08 03:21:12;;;;;;;5.13;4.57;;;;;;;12.38;47.39;100132.34;4920028;28;127363;-62
2021/01/08 03:23:38;;;;;;;4.95;4.45;;;;;;;12.39;47.42;100134.00;4895994;28;104212;-62
2021/01/08 03:26:04;;;;;;;5.03;4.18;;;;;;;12.39;47.19;100134.78;4885858;28;100113;-62
2021/01/08 03:28:30;;;;;;;4.93;4.40;;;;;;;12.38;47.42;100132.34;4890676;28;127448;-62
2021/01/08 03:30:57;;;;;;;4.57;4.15;;;;;;;12.39;47.31;100128.59;4900967;28;100909;-62
2021/01/08 03:33:23;;;;;;;5.15;4.45;;;;;;;12.41;47.29;100129.09;4894561;28;115832;-62
2021/01/08 03:35:49;;;;;;;6.07;4.50;;;;;;;12.40;47.15;100119.38;4909481;28;111150;-62
2021/01/08 03:38:15;;;;;;;5.03;4.30;;;;;;;12.38;47.37;100124.25;4923487;28;98349;-62
2021/01/08 03:40:41;;;;;;;5.32;4.38;;;;;;;12.38;47.36;100121.53;4921298;28;128918;-62
2021/01/08 03:43:08;;;;;;;5.28;4.50;;;;;;;12.39;47.64;100128.59;4923210;28;98737;-62
2021/01/08 03:45:34;;;;;;;4.53;3.92;;;;;;;12.39;47.11;100123.19;4922406;28;97804;-62
2021/01/08 03:48:04;;;;;;;6.45;4.63;;;;;;;12.36;47.45;100121.84;4921191;28;99747;-62
2021/01/08 03:50:30;;;;;;;5.43;4.72;;;;;;;12.37;47.45;100126.16;4889379;28;115172;-62
2021/01/08 03:52:56;;;;;;;5.95;4.28;;;;;;;12.39;47.42;100123.97;4917422;28;115480;-62
2021/01/08 03:55:22;;;;;;;5.20;4.10;;;;;;;12.39;47.31;100123.97;4903658;28;97898;-62
2021/01/08 03:57:48;;;;;;;5.00;4.32;;;;;;;12.38;47.55;100130.47;4915287;28;129657;-62
2021/01/08 04:00:15;;;;;;;5.20;4.20;;;;;;;12.38;47.16;100124.25;4902809;28;109172;-63
2021/01/08 04:02:41;;;;;;;4.70;4.00;;;;;;;12.40;47.67;100119.38;4921981;28;114548;-62
2021/01/08 04:05:08;;;;;;;4.97;4.20;;;;;;;12.39;47.41;100118.56;4921605;28;104248;-62
2021/01/08 04:07:34;;;;;;;5.00;4.22;;;;;;;12.40;47.26;100120.16;4915001;28;113657;-62
2021/01/08 04:10:00;;;;;;;6.80;4.20;;;;;;;12.37;47.53;100115.34;4922947;28;98554;-62
2021/01/08 04:12:26;;;;;;;4.63;4.03;;;;;;;12.40;47.54;100111.25;4920745;28;127395;-62
2021/01/08 04:14:52;;;;;;;6.13;4.28;;;;;;;12.40;47.43;100120.16;4921855;28;117941;-62
2021/01/08 04:17:18;;;;;;;5.15;4.13;;;;;;;12.39;47.44;100117.78;4920532;28;101942;-62
2021/01/08 04:19:44;;;;;;;6.82;4.20;;;;;;;12.40;47.65;100117.47;4920348;28;126059;-62
2021/01/08 04:22:10;;;;;;;5.07;4.47;;;;;;;12.40;47.53;100113.97;4921231;28;127621;-61
2021/01/08 04:24:36;;;;;;;4.70;4.20;;;;;;;12.41;47.61;100120.97;4921658;28;117761;-62
2021/01/08 04:27:02;;;;;;;5.90;4.55;;;;;;;12.41;47.49;100119.06;4921250;28;127789;-61
2021/01/08 04:29:28;;;;;;;4.88;4.00;;;;;;;12.44;47.54;100118.50;4923276;28;99143;-62
2021/01/08 04:31:55;;;;;;;5.05;4.10;;;;;;;12.43;47.51;100116.91;4921478;28;124174;-61
2021/01/08 04:34:21;;;;;;;5.18;4.13;;;;;;;12.43;47.21;100122.31;4923072;28;98073;-62
2021/01/08 04:36:47;;;;;;;4.35;3.95;;;;;;;12.40;47.77;100114.78;4919964;28;127929;-61
2021/01/08 04:39:13;;;;;;;4.70;4.20;;;;;;;12.42;47.60;100118.00;4921147;28;127819;-61
2021/01/08 04:41:39;;;;;;;4.60;4.10;;;;;;;12.40;47.97;100111.25;4918849;28;127352;-62
2021/01/08 04:44:05;;;;;;;5.28;4.53;;;;;;;12.41;47.56;100121.78;4903493;28;117900;-62
2021/01/08 04:46:33;;;;;;;5.45;4.30;;;;;;;12.42;47.58;100114.50;4918396;28;98358;-62
2021/01/08 04:49:06;;;;;;;6.03;4.00;;;;;;;12.41;47.57;100113.66;4903404;28;98972;-61
2021/01/08 04:51:37;;;;;;;4.47;3.88;;;;;;;12.41;47.49;100116.38;4919472;28;98575;-62
2021/01/08 04:54:06;;;;;;;4.60;4.10;;;;;;;12.40;47.66;100122.06;4921281;28;103038;-62
2021/01/08 04:56:50;;;;;;;5.60;4.43;;;;;;;12.41;47.65;100123.69;4921488;28;99085;-62
2021/01/08 04:59:16;;;;;;;5.20;4.38;;;;;;;12.40;47.46;100114.78;4902486;28;112369;-62
2021/01/08 05:01:42;;;;;;;5.28;4.10;;;;;;;12.41;47.55;100112.88;4918887;28;128160;-61
2021/01/08 05:04:08;;;;;;;5.90;4.30;;;;;;;12.40;47.86;100114.78;4895449;28;100403;-62
2021/01/08 05:06:34;;;;;;;5.00;4.18;;;;;;;12.40;47.75;100112.06;4899353;28;127912;-62
2021/01/08 05:09:00;;;;;;;5.53;4.68;;;;;;;12.40;47.61;100122.88;4882822;28;128219;-62
2021/01/08 05:11:30;;;;;;;5.60;4.65;;;;;;;12.39;47.65;100113.16;4903614;28;127852;-62
2021/01/08 05:13:57;;;;;;;5.32;4.40;;;;;;;12.41;47.63;100112.88;4922073;28;97910;-62
2021/01/08 05:16:26;;;;;;;4.97;4.45;;;;;;;12.41;47.83;100113.66;4921810;28;98781;-62
2021/01/08 05:18:53;;;;;;;5.13;4.40;;;;;;;12.38;47.44;100111.56;4885673;28;98755;-62
2021/01/08 05:21:19;;;;;;;5.22;4.28;;;;;;;12.36;47.40;100105.63;4881836;28;99299;-62
2021/01/08 05:23:48;;;;;;;5.60;4.20;;;;;;;12.37;47.68;100101.03;4901728;28;97691;-62
2021/01/08 05:26:14;;;;;;;4.88;4.22;;;;;;;12.37;47.67;100101.81;4884077;28;99400;-62
2021/01/08 05:28:46;;;;;;;5.68;4.15;;;;;;;12.38;47.78;100106.16;4883725;28;100509;-62
2021/01/08 05:31:13;;;;;;;4.88;4.05;;;;;;;12.37;47.69;100106.44;4901180;28;98170;-62
2021/01/08 05:33:40;;;;;;;5.15;4.22;;;;;;;12.36;47.73;100102.13;4915866;28;97709;-62
2021/01/08 05:36:13;;;;;;;5.10;4.18;;;;;;;12.32;47.89;100107.28;4903139;28;98485;-62
2021/01/08 05:38:47;;;;;;;5.05;4.13;;;;;;;12.31;47.80;100104.88;4917848;28;99172;-62
2021/01/08 05:41:13;;;;;;;5.75;4.55;;;;;;;12.29;48.03;100111.38;4921936;28;98074;-62
2021/01/08 05:43:44;;;;;;;4.55;4.13;;;;;;;12.29;47.53;100111.38;4921642;28;97969;-62
2021/01/08 05:46:16;;;;;;;4.88;4.28;;;;;;;12.26;47.92;100111.97;4902860;28;98528;-62
2021/01/08 05:49:07;;;;;;;4.97;4.07;;;;;;;12.26;48.13;100114.66;4920589;28;98253;-61
2021/01/08 05:51:37;;;;;;;5.22;4.30;;;;;;;12.28;47.95;100117.06;4906234;28;98354;-62
2021/01/08 05:54:04;;;;;;;5.10;3.90;;;;;;;12.28;48.06;100120.56;4920637;28;99680;-62
2021/01/08 05:56:35;;;;;;;4.72;3.78;;;;;;;12.28;47.87;100117.06;4919876;28;98368;-62
2021/01/08 05:59:04;;;;;;;4.95;4.10;;;;;;;12.25;48.45;100115.72;4921238;28;98341;-62
2021/01/08 06:01:30;;;;;;;5.60;4.22;;;;;;;12.25;48.24;100120.34;4874969;28;97910;-62
2021/01/08 06:03:56;;;;;;;5.72;4.53;;;;;;;12.23;48.29;100115.22;4889456;28;97752;-61
2021/01/08 06:06:24;;;;;;;4.80;3.90;;;;;;;12.24;48.37;100116.84;4902567;28;98787;-62
2021/01/08 06:08:54;;;;;;;5.10;4.20;;;;;;;12.21;48.38;100119.31;4899714;28;97860;-62
2021/01/08 06:11:30;;;;;;;4.82;4.18;;;;;;;12.22;48.15;100115.50;4882462;28;111195;-62
2021/01/08 06:14:01;;;;;;;4.90;3.85;;;;;;;12.25;48.32;100120.34;4901350;28;97835;-62
2021/01/08 06:16:35;;;;;;;5.47;4.30;;;;;;;12.24;48.55;100116.03;4900496;28;98129;-62
2021/01/08 06:19:01;;;;;;;5.18;4.40;;;;;;;12.23;48.21;100119.84;4898882;28;116421;-62
2021/01/08 06:21:35;;;;;;;4.93;4.18;;;;;;;12.19;48.63;100122.31;4883268;28;116958;-62
2021/01/08 06:24:01;;;;;;;5.13;4.25;;;;;;;12.21;48.46;100122.00;4904407;28;98055;-62
2021/01/08 06:26:28;;;;;;;5.60;4.55;;;;;;;12.22;48.20;100126.31;4885351;28;128837;-62
2021/01/08 06:28:54;;;;;;;5.28;4.30;;;;;;;12.24;48.39;100129.53;4887973;28;117744;-62
2021/01/08 06:31:23;;;;;;;4.97;4.30;;;;;;;12.20;48.14;100123.91;4904657;28;127335;-62
2021/01/08 06:33:56;;;;;;;5.32;4.13;;;;;;;12.19;48.61;100126.91;4924501;28;97785;-62
2021/01/08 06:36:29;;;;;;;4.90;3.65;;;;;;;12.20;48.70;100129.31;4923454;28;98252;-62
2021/01/08 06:38:57;;;;;;;4.60;4.18;;;;;;;12.20;48.36;100133.91;4906097;28;98547;-62
2021/01/08 06:41:23;;;;;;;4.85;3.90;;;;;;;12.21;48.34;100130.91;4920979;28;116682;-62
2021/01/08 06:44:05;;;;;;;4.85;4.15;;;;;;;12.18;48.56;100127.97;4924109;28;97820;-62
2021/01/08 06:46:42;;;;;;;4.55;3.90;;;;;;;12.16;48.80;100132.88;4924317;28;98093;-61
2021/01/08 06:49:12;;;;;;;5.28;4.32;;;;;;;12.16;48.58;100141.78;4914658;28;99009;-62
2021/01/08 06:51:39;;;;;;;6.45;4.40;;;;;;;12.18;48.62;100141.47;4901444;28;126995;-62
2021/01/08 06:54:09;;;;;;;5.07;4.32;;;;;;;12.19;48.82;100143.91;4893598;28;97990;-61
2021/01/08 06:56:46;;;;;;;5.28;4.38;;;;;;;12.18;48.56;100141.47;4914699;28;98779;-61
2021/01/08 06:59:13;;;;;;;5.28;4.63;;;;;;;12.17;48.81;100145.28;4891987;28;98391;-62
2021/01/08 07:02:15;;;;;;;5.57;4.75;;;;;;;12.15;48.85;100145.56;4921357;28;98080;-62
2021/01/08 07:04:41;;;;;;;5.32;4.40;;;;;;;12.16;48.82;100151.78;4902693;28;97774;-62
2021/01/08 07:07:25;;;;;;;5.32;4.45;;;;;;;12.15;48.89;100155.59;4898960;28;99620;-62
2021/01/08 07:09:51;;;;;;;5.15;4.18;;;;;;;12.16;48.92;100152.59;4891678;28;98459;-62
2021/01/08 07:12:17;;;;;;;5.45;4.63;;;;;;;12.18;49.05;100161.22;4898581;28;110073;-62
2021/01/08 07:14:44;;;;;;;5.65;4.10;;;;;;;12.18;48.74;100161.22;4889966;28;97915;-61
2021/01/08 07:17:12;;;;;;;5.55;4.28;;;;;;;12.20;48.92;100166.34;4898712;28;127179;-62
2021/01/08 07:19:43;;;;;;;5.15;4.47;;;;;;;12.19;48.62;100167.44;4920443;28;99085;-63
2021/01/08 07:22:17;;;;;;;5.05;4.47;;;;;;;12.17;48.46;100164.19;4921005;28;97889;-61
2021/01/08 07:24:43;;;;;;;6.15;4.93;;;;;;;12.20;48.97;100166.34;4906131;28;108385;-61
2021/01/08 07:27:25;;;;;;;5.72;4.65;;;;;;;12.18;48.64;100171.19;4881609;28;111660;-62
2021/01/08 07:29:58;;;;;;;5.57;4.80;;;;;;;12.20;49.01;100177.94;4875226;28;101290;-62
2021/01/08 07:32:33;;;;;;;6.07;4.55;;;;;;;12.20;49.08;100174.44;4910464;28;98115;-62
2021/01/08 07:34:59;;;;;;;5.80;4.88;;;;;;;12.22;48.72;100183.06;4920978;28;98058;-63
2021/01/08 07:37:57;;;;;;;5.70;4.60;;;;;;;12.19;49.35;100183.66;4900784;28;101868;-62
2021/01/08 07:40:44;;;;;;;5.28;4.57;;;;;;;12.23;49.37;100184.69;4920797;28;98200;-62
2021/01/08 07:43:13;;;;;;;6.32;5.20;;;;;;;12.24;49.77;100189.00;4894146;28;98418;-62
2021/01/08 07:45:53;;;;;;;5.90;4.57;;;;;;;12.23;49.84;100185.50;4918325;28;118972;-62
2021/01/08 07:48:41;;;;;;;6.40;4.93;;;;;;;12.22;50.53;100197.41;4874124;28;99305;-62
2021/01/08 07:51:16;;;;;;;4.90;4.30;;;;;;;12.25;50.22;100196.00;4915156;28;98862;-62
2021/01/08 07:53:45;;;;;;;5.13;4.43;;;;;;;12.25;50.78;100199.50;4900888;28;97915;-62
2021/01/08 07:56:15;;;;;;;5.90;4.97;;;;;;;12.27;51.09;100196.53;4900966;28;98026;-62
2021/01/08 07:58:42;;;;;;;5.50;4.60;;;;;;;12.31;50.98;100208.38;4900209;28;98074;-61
2021/01/08 08:01:10;;;;;;;5.57;4.75;;;;;;;12.29;50.90;100200.56;4899841;28;99375;-62
2021/01/08 08:03:37;;;;;;;5.13;4.45;;;;;;;12.31;51.38;100208.38;4900224;28;98174;-62
2021/01/08 08:06:04;;;;;;;5.40;4.40;;;;;;;12.32;51.60;100203.78;4901100;28;98050;-61
2021/01/08 08:08:30;;;;;;;5.80;4.82;;;;;;;12.34;51.50;100202.41;4900620;28;99080;-62
2021/01/08 08:11:13;;;;;;;6.28;4.68;;;;;;;12.32;51.86;100203.78;4898708;28;99633;-61
2021/01/08 08:13:40;;;;;;;5.32;4.80;;;;;;;12.37;51.91;100212.63;4905484;28;98104;-62
2021/01/08 08:16:06;;;;;;;5.55;4.82;;;;;;;12.37;52.09;100209.94;4901819;28;98165;-62
2021/01/08 08:18:32;;;;;;;5.53;4.82;;;;;;;12.45;51.98;100219.31;4897449;28;99003;-62
2021/01/08 08:21:11;;;;;;;5.20;4.70;;;;;;;12.45;52.26;100230.13;4900706;28;98450;-62
2021/01/08 08:23:37;;;;;;;5.45;4.78;;;;;;;12.52;52.09;100226.00;4892318;28;112089;-62
2021/01/08 08:26:04;;;;;;;5.40;4.50;;;;;;;12.57;52.14;100227.03;4900250;28;98002;-61
2021/01/08 08:28:31;;;;;;;6.32;4.88;;;;;;;12.63;52.01;100228.63;4892277;28;98925;-62
2021/01/08 08:30:57;;;;;;;5.53;4.80;;;;;;;12.74;52.15;100222.81;4907418;28;98447;-61
2021/01/08 08:33:23;;;;;;;5.85;4.88;;;;;;;12.84;52.24;100224.59;4902288;28;98040;-62
2021/01/08 08:35:52;;;;;;;5.43;4.75;;;;;;;12.89;52.05;100219.13;4901674;28;98033;-63
2021/01/08 08:38:18;;;;;;;5.68;4.78;;;;;;;13.01;52.15;100233.06;4919631;28;108667;-62
2021/01/08 08:40:44;;;;;;;5.20;4.70;;;;;;;13.08;51.87;100229.97;4918579;28;127043;-62
2021/01/08 08:43:20;;;;;;;5.78;5.15;;;;;;;13.13;52.19;100229.94;4920011;28;98043;-62
2021/01/08 08:45:46;;;;;;;5.20;4.70;;;;;;;13.10;52.48;100235.13;4910204;28;97925;-62
2021/01/08 08:48:12;;;;;;;5.40;4.70;;;;;;;13.06;52.79;100240.31;4881733;28;100084;-62
2021/01/08 08:50:45;;;;;;;5.88;4.75;;;;;;;12.97;52.95;100232.03;4880587;28;126690;-62
2021/01/08 08:53:12;;;;;;;5.60;4.63;;;;;;;12.98;53.13;100230.94;4908440;28;97816;-62
2021/01/08 08:55:39;;;;;;;6.22;4.72;;;;;;;12.98;53.44;100227.41;4900288;28;98140;-62
2021/01/08 08:58:10;;;;;;;5.70;4.53;;;;;;;12.97;53.38;100236.63;4866668;28;98392;-62
2021/01/08 09:00:41;;;;;;;4.83;4.33;;;;;;;12.99;53.37;100239.84;4881995;28;98260;-62
2021/01/08 09:03:24;;;;;;;5.25;4.70;;;;;;;13.00;53.45;100239.53;4899562;28;98417;-62
2021/01/08 09:05:51;;;;;;;5.75;5.03;;;;;;;13.03;53.45;100235.47;4900308;28;97958;-61
2021/01/08 09:08:36;;;;;;;5.80;5.00;;;;;;;13.02;53.57;100240.06;4900988;28;98760;-62
2021/01/08 09:11:29;;;;;;;5.28;4.68;;;;;;;12.99;53.60;100245.25;4897924;28;98713;-62
2021/01/08 09:14:02;;;;;;;6.05;4.95;;;;;;;12.98;53.66;100241.75;4881994;28;98045;-62
2021/01/08 09:16:53;;;;;;;5.88;5.25;;;;;;;13.01;53.62;100241.19;4882765;28;97939;-62
2021/01/08 09:19:32;;;;;;;6.60;5.25;;;;;;;13.06;53.68;100236.81;4868162;28;99071;-62
2021/01/08 09:21:58;;;;;;;7.32;5.68;;;;;;;13.05;53.86;100229.75;4862704;28;99017;-62
2021/01/08 09:24:30;;;;;;;6.47;5.53;;;;;;;13.05;53.79;100232.47;4860939;28;128339;-62
2021/01/08 09:27:12;;;;;;;6.47;5.70;;;;;;;13.04;53.75;100237.06;4875937;28;103743;-62
2021/01/08 09:29:39;;;;;;;6.80;5.90;;;;;;;13.10;53.60;100240.53;4860508;28;98781;-62
2021/01/08 09:32:06;;;;;;;6.28;5.60;;;;;;;13.20;53.58;100245.81;4879156;28;98423;-62
2021/01/08 09:34:32;;;;;;;7.00;5.82;;;;;;;13.22;53.56;100247.13;4879585;28;98177;-61
2021/01/08 09:36:59;;;;;;;6.15;5.28;;;;;;;13.23;53.48;100242.56;4879974;28;98052;-61
2021/01/08 09:39:29;;;;;;;6.15;5.22;;;;;;;13.23;53.41;100243.34;4880396;28;98123;-61
2021/01/08 09:41:59;;;;;;;7.45;5.60;;;;;;;13.23;53.39;100248.78;4880111;28;98738;-62
2021/01/08 09:44:39;;;;;;;6.35;5.30;;;;;;;13.23;53.41;100246.06;4880508;28;111726;-61
2021/01/08 09:47:13;;;;;;;5.93;5.30;;;;;;;13.22;53.32;100244.44;4872623;28;98445;-62
2021/01/08 09:49:51;;;;;;;6.85;5.22;;;;;;;13.22;53.57;100243.63;4880441;28;98262;-62
2021/01/08 09:52:17;;;;;;;6.40;5.18;;;;;;;13.20;53.54;100249.34;4879482;28;107692;-61
2021/01/08 09:54:48;;;;;;;5.85;5.03;;;;;;;13.19;53.57;100250.41;4879121;28;98417;-61
2021/01/08 09:57:27;;;;;;;6.03;5.15;;;;;;;13.18;53.18;100248.81;4865485;28;97966;-61
2021/01/08 10:00:00;;;;;;;5.72;4.55;;;;;;;13.21;53.49;100242.03;4898439;28;98693;-61
2021/01/08 10:02:41;;;;;;;5.55;4.80;;;;;;;13.19;53.38;100252.31;4881338;28;99023;-61
2021/01/08 10:05:19;;;;;;;6.15;4.88;;;;;;;13.22;52.83;100249.03;4881379;28;114578;-61
2021/01/08 10:07:46;;;;;;;6.07;4.70;;;;;;;13.25;53.20;100248.50;4882887;28;97923;-61
2021/01/08 10:10:17;;;;;;;5.22;4.70;;;;;;;13.26;53.16;100241.97;4882594;28;117505;-61
2021/01/08 10:12:44;;;;;;;5.20;4.57;;;;;;;13.26;53.27;100248.19;4858954;28;120414;-61
2021/01/08 10:15:12;;;;;;;5.55;4.95;;;;;;;13.25;53.29;100248.50;4880119;28;98642;-62
2021/01/08 10:17:48;;;;;;;5.05;4.55;;;;;;;13.24;53.17;100250.41;4883611;28;97923;-60
2021/01/08 10:20:24;;;;;;;5.13;4.45;;;;;;;13.22;53.48;100254.44;4865638;28;118263;-62
2021/01/08 10:22:52;;;;;;;5.65;4.80;;;;;;;13.22;53.40;100255.25;4882396;28;99191;-61
2021/01/08 10:25:30;;;;;;;4.80;4.30;;;;;;;13.23;53.49;100258.78;4882808;28;97827;-61
2021/01/08 10:28:22;;;;;;;5.03;4.53;;;;;;;13.29;53.40;100246.03;4882855;28;108345;-61
2021/01/08 10:30:53;;;;;;;4.97;4.30;;;;;;;13.29;53.48;100249.53;4863921;28;98942;-61
2021/01/08 10:33:23;;;;;;;5.15;4.15;;;;;;;13.35;53.32;100248.34;4862709;28;105558;-61
2021/01/08 10:35:53;;;;;;;5.90;4.72;;;;;;;13.43;53.28;100249.59;4861848;28;112322;-62
2021/01/08 10:38:19;;;;;;;5.00;4.50;;;;;;;13.50;52.91;100240.03;4861856;28;98040;-62
2021/01/08 10:40:45;;;;;;;4.25;3.85;;;;;;;13.58;52.94;100240.47;4863567;28;98589;-61
2021/01/08 10:43:11;;;;;;;5.20;4.10;;;;;;;13.67;52.82;100244.13;4863232;28;115120;-62
2021/01/08 10:45:38;;;;;;;5.25;4.45;;;;;;;13.71;52.86;100237.03;4863926;28;97903;-62
2021/01/08 10:48:05;;;;;;;4.70;4.30;;;;;;;13.69;53.12;100231.09;4862239;28;117771;-62
2021/01/08 10:50:32;;;;;;;4.82;4.25;;;;;;;13.69;53.10;100242.75;4864179;28;98990;-61
2021/01/08 10:53:02;;;;;;;5.13;4.63;;;;;;;13.63;53.52;100237.69;4883105;28;99004;-61
2021/01/08 10:55:28;;;;;;;4.90;3.95;;;;;;;13.59;53.61;100240.16;4898050;28;98112;-61
2021/01/08 10:57:57;;;;;;;4.57;4.07;;;;;;;13.49;54.09;100238.44;4916494;28;116268;-61
2021/01/08 11:00:23;;;;;;;4.95;4.38;;;;;;;13.45;54.15;100244.72;4909068;28;101741;-61
2021/01/08 11:02:49;;;;;;;4.78;4.20;;;;;;;13.41;54.35;100236.38;4901524;28;98774;-61
2021/01/08 11:05:15;;;;;;;4.53;4.13;;;;;;;13.43;54.23;100234.16;4901638;28;105778;-61
2021/01/08 11:07:41;;;;;;;4.53;3.83;;;;;;;13.42;54.13;100242.59;4899647;28;117275;-61
2021/01/08 11:10:08;;;;;;;4.53;4.13;;;;;;;13.45;54.19;100242.81;4889661;28;98411;-62
2021/01/08 11:12:34;;;;;;;4.63;4.22;;;;;;;13.54;53.89;100234.84;4897948;28;98504;-61
2021/01/08 11:15:02;;;;;;;4.25;3.63;;;;;;;13.62;53.53;100230.66;4916576;28;127306;-61
2021/01/08 11:17:28;;;;;;;4.70;4.00;;;;;;;13.69;53.79;100234.63;4917746;28;97646;-61
2021/01/08 11:19:54;;;;;;;3.75;3.35;;;;;;;13.74;53.39;100233.72;4895969;28;99283;-61
2021/01/08 11:22:20;;;;;;;4.40;3.88;;;;;;;13.72;53.29;100235.94;4900500;28;120459;-62
2021/01/08 11:24:46;;;;;;;4.25;3.63;;;;;;;13.69;53.57;100234.63;4900766;28;103797;-61
2021/01/08 11:27:12;;;;;;;4.20;3.80;;;;;;;13.63;53.89;100235.78;4900740;28;117072;-61
2021/01/08 11:29:38;;;;;;;3.47;3.17;;;;;;;13.63;53.93;100232.28;4901645;28;98445;-61
2021/01/08 11:32:08;;;;;;;3.78;3.40;;;;;;;13.59;54.10;100233.94;4897010;28;126977;-62